Time;durP1;ratioP1;P1;durP2;ratioP2;P2;SDS_P1;SDS_P2;PMS_P1;PMS_P2;Temp;Humidity;BMP_temperature;BMP_pressure;BME280_temperature;BME280_humidity;BME280_pressure;Samples;Min_cycle;Max_cycle;Signal;HPM_P1;HPM_P2
2022/12/21 05:00:40;;;;;;;14.60;8.03;;;;;;;3.91;70.97;102538.91;1776063;80;21509;-50
2022/12/21 05:03:06;;;;;;;14.90;8.53;;;;;;;4.20;69.44;102539.46;1759580;80;21061;-50
2022/12/21 05:05:33;;;;;;;13.32;8.88;;;;;;;4.36;69.13;102546.85;1755839;80;21077;-51
2022/12/21 05:07:59;;;;;;;13.45;7.80;;;;;;;4.50;68.80;102550.73;1758591;80;21033;-49
2022/12/21 05:10:26;;;;;;;10.80;7.53;;;;;;;4.67;68.34;102553.43;1756691;80;21080;-49
2022/12/21 05:12:53;;;;;;;11.63;7.03;;;;;;;4.85;67.69;102552.69;1757519;80;21726;-50
2022/12/21 05:15:19;;;;;;;11.35;7.83;;;;;;;5.02;67.21;102557.47;1763257;80;21026;-49
2022/12/21 05:17:46;;;;;;;12.07;8.10;;;;;;;5.14;66.64;102548.38;1757258;80;21054;-50
2022/12/21 05:20:12;;;;;;;9.93;7.37;;;;;;;5.26;66.35;102538.81;1761360;80;21030;-49
2022/12/21 05:22:39;;;;;;;12.15;8.08;;;;;;;5.37;65.99;102542.58;1763564;80;21010;-49
2022/12/21 05:25:07;;;;;;;12.90;7.87;;;;;;;5.47;65.66;102540.30;1772758;80;21127;-50
2022/12/21 05:27:35;;;;;;;12.78;7.55;;;;;;;5.58;65.29;102536.31;1761610;80;21014;-50
2022/12/21 05:30:02;;;;;;;15.90;8.03;;;;;;;5.65;64.88;102531.75;1761350;80;21547;-49
2022/12/21 05:32:29;;;;;;;8.70;7.30;;;;;;;5.72;64.60;102527.21;1754431;80;21534;-49
2022/12/21 05:34:56;;;;;;;10.40;7.58;;;;;;;5.78;64.26;102530.36;1756465;80;21022;-50
2022/12/21 05:37:23;;;;;;;10.80;6.95;;;;;;;5.82;64.10;102536.06;1755058;80;21031;-49
2022/12/21 05:39:49;;;;;;;9.15;7.47;;;;;;;5.87;64.17;102526.77;1762152;80;21046;-49
2022/12/21 05:42:17;;;;;;;13.35;7.87;;;;;;;5.92;64.11;102531.61;1742093;81;21058;-50
2022/12/21 05:44:43;;;;;;;13.48;8.55;;;;;;;5.98;63.97;102534.34;1744440;80;21059;-50
2022/12/21 05:47:10;;;;;;;13.72;7.90;;;;;;;6.04;63.80;102534.50;1756229;81;21019;-49
2022/12/21 05:49:37;;;;;;;10.05;7.35;;;;;;;6.07;63.79;102531.13;1746660;81;21584;-49
2022/12/21 05:52:03;;;;;;;10.38;7.47;;;;;;;6.10;63.76;102532.06;1750336;80;21042;-50
2022/12/21 05:54:31;;;;;;;9.90;5.97;;;;;;;6.15;63.79;102527.90;1761792;80;21050;-50
2022/12/21 05:56:58;;;;;;;13.45;7.10;;;;;;;6.22;63.63;102528.92;1765725;80;21082;-49
2022/12/21 05:59:25;;;;;;;14.33;8.33;;;;;;;6.26;63.37;102534.21;1752080;81;21534;-50
2022/12/21 06:01:51;;;;;;;12.40;7.47;;;;;;;6.31;63.07;102535.17;1764089;80;21070;-49
2022/12/21 06:04:18;;;;;;;8.45;6.35;;;;;;;6.34;63.11;102535.27;1749794;80;21061;-49
2022/12/21 06:06:46;;;;;;;10.82;6.15;;;;;;;6.40;63.11;102542.28;1759553;80;21028;-50
2022/12/21 06:09:13;;;;;;;9.38;6.78;;;;;;;6.44;63.15;102547.56;1759064;80;20998;-50
2022/12/21 06:11:40;;;;;;;15.65;7.00;;;;;;;6.50;63.07;102550.30;1749197;81;20998;-50
2022/12/21 06:14:07;;;;;;;9.25;7.62;;;;;;;6.56;62.87;102553.02;1760832;80;21073;-49
2022/12/21 06:16:35;;;;;;;10.20;7.47;;;;;;;6.59;62.62;102547.05;1757875;80;21474;-50
2022/12/21 06:19:01;;;;;;;12.15;8.18;;;;;;;6.62;62.49;102546.22;1760038;80;21037;-50
2022/12/21 06:21:28;;;;;;;12.60;8.15;;;;;;;6.64;62.48;102549.72;1755113;80;21014;-50
2022/12/21 06:23:55;;;;;;;12.03;7.75;;;;;;;6.66;62.64;102556.68;1759278;80;20987;-49
2022/12/21 06:26:21;;;;;;;10.58;8.05;;;;;;;6.71;62.62;102554.20;1770106;80;21034;-50
2022/12/21 06:28:52;;;;;;;10.43;7.92;;;;;;;6.76;62.49;102546.14;1756546;80;21514;-50
2022/12/21 06:31:20;;;;;;;11.03;8.03;;;;;;;6.82;62.29;102552.74;1763547;80;21513;-50
2022/12/21 06:33:46;;;;;;;11.10;7.15;;;;;;;6.85;62.21;102541.14;1753631;80;21553;-50
2022/12/21 06:36:13;;;;;;;11.70;7.85;;;;;;;6.86;62.20;102546.79;1776517;80;20998;-50
2022/12/21 06:38:40;;;;;;;13.25;7.42;;;;;;;6.87;62.20;102539.05;1754428;80;21114;-50
2022/12/21 06:41:11;;;;;;;11.30;6.50;;;;;;;6.92;62.35;102541.75;1769476;80;21569;-50
2022/12/21 06:43:39;;;;;;;9.43;6.80;;;;;;;6.97;62.36;102541.41;1749713;80;21176;-50
2022/12/21 06:46:11;;;;;;;9.98;7.85;;;;;;;7.01;62.14;102539.33;1760217;81;21510;-50
2022/12/21 06:48:37;;;;;;;;;;;;;;;7.06;62.02;102535.14;1758341;80;20998;-47
2022/12/21 06:51:08;;;;;;;10.30;7.20;;;;;;;7.11;61.97;102526.62;1756798;80;20097;-50
2022/12/21 06:53:36;;;;;;;11.83;7.53;;;;;;;7.14;62.05;102526.70;1710556;83;21098;-50
2022/12/21 06:56:06;;;;;;;13.03;9.65;;;;;;;7.18;62.16;102526.33;1709406;83;21114;-50
2022/12/21 06:58:35;;;;;;;12.57;9.50;;;;;;;7.22;62.34;102525.55;1657515;85;21062;-50
2022/12/21 07:01:08;;;;;;;13.62;9.00;;;;;;;7.24;62.65;102528.63;1651566;85;21654;-49
2022/12/21 07:03:35;;;;;;;15.78;9.13;;;;;;;7.28;62.72;102517.48;1674881;85;21532;-50
2022/12/21 07:06:01;;;;;;;12.37;8.55;;;;;;;7.36;62.65;102512.44;1671529;85;21301;-49
2022/12/21 07:08:28;;;;;;;11.35;9.78;;;;;;;7.43;62.56;102526.39;1660858;85;21625;-50
2022/12/21 07:11:07;;;;;;;37.67;26.07;;;;;;;7.49;62.40;102527.38;1675806;85;21082;-50
2022/12/21 07:13:39;;;;;;;42.00;35.17;;;;;;;7.54;62.23;102536.54;1673982;85;21079;-50
2022/12/21 07:16:07;;;;;;;24.85;20.68;;;;;;;7.58;62.04;102532.75;1676582;85;21035;-49
2022/12/21 07:21:05;;;;;;;18.87;13.85;;;;;;;7.68;61.79;102524.30;1606135;88;21134;-50
2022/12/21 07:23:33;;;;;;;17.82;12.65;;;;;;;7.72;61.60;102522.63;1608347;88;21096;-49
2022/12/21 07:26:01;;;;;;;14.83;10.90;;;;;;;7.77;61.23;102519.25;1599813;88;21081;-50
2022/12/21 07:28:27;;;;;;;15.43;10.53;;;;;;;7.80;60.96;102521.91;1606625;87;21073;-49
2022/12/21 07:31:04;;;;;;;17.92;11.00;;;;;;;7.83;60.68;102527.14;1614350;88;21057;-49
2022/12/21 07:33:31;;;;;;;12.88;9.05;;;;;;;7.86;60.60;102528.91;1580598;89;21830;-49
2022/12/21 07:36:01;;;;;;;15.40;8.43;;;;;;;7.89;60.47;102528.53;1575977;89;21134;-49
2022/12/21 07:38:30;;;;;;;11.90;7.55;;;;;;;7.91;60.39;102529.44;1559707;90;21519;-50
2022/12/21 07:41:03;;;;;;;9.90;7.03;;;;;;;7.96;60.02;102522.63;1557707;90;21115;-50
2022/12/21 07:43:30;;;;;;;15.00;8.20;;;;;;;7.99;59.62;102527.88;1575492;90;21574;-49
2022/12/21 07:46:05;;;;;;;10.85;7.95;;;;;;;8.00;59.38;102528.31;1543195;92;21113;-51
2022/12/21 17:17:15;;;;;;;10.10;5.17;;;;;;;8.33;79.49;102206.83;1774341;80;21029;-59
2022/12/21 17:20:05;;;;;;;7.85;4.90;;;;;;;8.66;77.43;102201.97;1762875;80;21124;-59
2022/12/21 17:22:33;;;;;;;9.58;5.72;;;;;;;8.82;76.58;102197.38;1746751;80;21155;-58
2022/12/21 17:25:15;;;;;;;14.63;7.08;;;;;;;9.00;75.98;102189.73;1756712;80;21017;-59
2022/12/21 17:27:52;;;;;;;11.25;5.72;;;;;;;9.17;75.48;102185.95;1752535;80;21356;-59
2022/12/21 17:30:21;;;;;;;7.78;4.70;;;;;;;9.36;74.80;102184.77;1714179;82;21663;-59
2022/12/21 17:32:48;;;;;;;6.25;3.55;;;;;;;9.55;74.00;102184.02;1714243;83;21070;-59
2022/12/21 17:35:16;;;;;;;8.38;3.67;;;;;;;9.70;73.10;102184.10;1713784;83;21053;-58
2022/12/21 17:37:44;;;;;;;6.15;3.80;;;;;;;9.83;72.28;102179.80;1705602;83;21512;-59
2022/12/21 17:40:14;;;;;;;5.10;3.02;;;;;;;9.94;71.70;102187.64;1715341;83;21022;-58
2022/12/21 17:42:41;;;;;;;7.17;3.98;;;;;;;10.03;71.19;102188.98;1653242;85;21006;-59
2022/12/21 17:45:14;;;;;;;9.38;5.42;;;;;;;10.12;70.78;102187.30;1640801;85;21057;-59
2022/12/21 17:47:41;;;;;;;6.92;4.05;;;;;;;10.22;70.40;102188.22;1631489;85;21012;-58
2022/12/21 17:50:41;;;;;;;9.03;3.98;;;;;;;10.27;70.07;102187.77;1637386;86;21549;-58
2022/12/21 17:53:19;;;;;;;8.88;4.40;;;;;;;10.33;69.84;102189.09;1628487;86;21643;-57
2022/12/21 17:55:46;;;;;;;8.08;4.10;;;;;;;10.40;69.63;102189.55;1628857;86;21110;-57
2022/12/21 17:58:14;;;;;;;13.05;5.30;;;;;;;10.46;69.47;102194.76;1620334;87;21066;-58
2022/12/21 18:00:42;;;;;;;13.15;6.53;;;;;;;10.50;69.03;102186.09;1627350;86;21097;-57
2022/12/21 18:03:26;;;;;;;8.05;3.72;;;;;;;10.54;68.70;102183.50;1626694;86;21101;-58
2022/12/21 18:05:53;;;;;;;7.33;3.30;;;;;;;10.59;68.46;102183.51;1651387;86;21127;-57
2022/12/21 18:08:21;;;;;;;8.18;3.33;;;;;;;10.63;68.31;102180.04;1687803;84;21037;-58
2022/12/21 18:10:48;;;;;;;7.08;3.22;;;;;;;10.65;68.23;102179.60;1660046;84;21029;-58
2022/12/21 18:13:15;;;;;;;5.53;3.12;;;;;;;10.69;67.85;102180.47;1687199;84;21624;-57
2022/12/21 18:15:47;;;;;;;7.75;4.42;;;;;;;10.70;67.55;102179.16;1669874;84;21070;-57
2022/12/21 18:18:24;;;;;;;6.22;2.77;;;;;;;10.70;67.51;102172.64;1608533;88;21139;-57
2022/12/21 18:20:51;;;;;;;5.92;3.67;;;;;;;10.70;67.39;102164.84;1569064;90;21207;-57
2022/12/21 18:23:20;;;;;;;7.78;3.80;;;;;;;10.71;67.34;102163.98;1571686;90;21640;-57
2022/12/21 18:25:47;;;;;;;7.65;3.30;;;;;;;10.72;67.18;102168.31;1569083;90;21089;-58
2022/12/21 18:28:16;;;;;;;7.37;4.75;;;;;;;10.73;66.98;102172.66;1554034;90;21121;-57
2022/12/21 18:30:46;;;;;;;7.03;4.28;;;;;;;10.72;66.92;102167.00;1548725;91;21594;-57
2022/12/21 18:33:15;;;;;;;7.22;3.60;;;;;;;10.72;66.95;102164.41;1571104;90;21138;-57
2022/12/21 18:35:42;;;;;;;9.43;3.52;;;;;;;10.71;66.75;102165.29;1564729;90;21092;-57
2022/12/21 18:38:27;;;;;;;4.70;3.00;;;;;;;10.71;66.71;102160.51;1573568;90;21248;-58
2022/12/21 18:40:54;;;;;;;8.85;3.00;;;;;;;10.71;66.72;102165.29;1565404;90;21574;-57
2022/12/21 18:43:26;;;;;;;10.23;3.33;;;;;;;10.71;66.83;102161.81;1582596;90;21049;-57
2022/12/21 18:46:03;;;;;;;7.10;3.17;;;;;;;10.72;66.87;102176.12;1557286;90;21722;-58
2022/12/21 18:48:30;;;;;;;6.20;3.30;;;;;;;10.72;66.83;102182.63;1568045;90;21078;-57
2022/12/21 18:50:57;;;;;;;6.50;3.17;;;;;;;10.74;66.61;102178.28;1579071;90;21132;-57
2022/12/21 18:53:23;;;;;;;7.42;2.83;;;;;;;10.74;66.49;102180.89;1572531;90;21062;-57
2022/12/21 18:55:50;;;;;;;6.75;2.58;;;;;;;10.73;66.45;102172.66;1580430;90;21539;-57
2022/12/21 18:58:16;;;;;;;4.05;2.10;;;;;;;10.73;66.55;102169.19;1578823;90;21150;-57
2022/12/21 19:00:44;;;;;;;5.22;2.83;;;;;;;10.72;66.72;102178.72;1590686;88;21113;-57
2022/12/21 19:03:25;;;;;;;6.92;3.37;;;;;;;10.73;66.83;102170.06;1607186;88;21794;-57
2022/12/21 19:05:53;;;;;;;6.28;3.25;;;;;;;10.75;66.87;102165.72;1593827;88;21104;-57
2022/12/21 19:08:20;;;;;;;7.00;4.33;;;;;;;10.79;66.68;102158.77;1582082;89;21069;-57
2022/12/21 19:10:47;;;;;;;5.70;2.60;;;;;;;10.81;66.63;102157.91;1585922;89;21149;-57
2022/12/21 19:13:27;;;;;;;5.08;3.08;;;;;;;10.81;66.69;102161.81;1592210;89;21108;-57
2022/12/21 19:15:59;;;;;;;5.65;2.98;;;;;;;10.83;66.82;102162.67;1641807;86;21117;-57
2022/12/21 19:18:26;;;;;;;8.93;3.50;;;;;;;10.85;66.70;102163.55;1686522;84;21053;-57
2022/12/21 19:20:53;;;;;;;5.37;3.35;;;;;;;10.86;66.63;102167.86;1696188;81;21062;-57
2022/12/21 19:23:19;;;;;;;4.00;2.55;;;;;;;10.88;66.55;102164.83;1711817;82;21069;-57
2022/12/21 19:25:47;;;;;;;5.25;3.00;;;;;;;10.89;66.40;102156.59;1732572;81;21076;-57
2022/12/21 19:28:16;;;;;;;5.85;2.42;;;;;;;10.89;66.40;102160.06;1724274;81;21097;-58
2022/12/21 19:30:44;;;;;;;9.63;2.95;;;;;;;10.89;66.55;102161.37;1737487;81;21034;-57
2022/12/21 19:33:10;;;;;;;7.55;3.08;;;;;;;10.91;66.61;102160.94;1737191;81;21050;-57
2022/12/21 19:35:39;;;;;;;8.33;4.20;;;;;;;10.92;66.54;102163.95;1733023;81;21556;-57
2022/12/21 19:38:06;;;;;;;5.92;3.12;;;;;;;10.92;66.37;102165.25;1717132;82;21019;-59
2022/12/21 19:40:36;;;;;;;6.47;3.60;;;;;;;10.93;66.25;102170.91;1744050;81;21586;-57
2022/12/21 19:43:05;;;;;;;6.35;3.45;;;;;;;10.95;66.19;102162.66;1698502;81;21052;-57
2022/12/21 19:45:31;;;;;;;7.22;3.83;;;;;;;10.96;66.02;102157.91;1739630;81;21117;-57
2022/12/21 19:47:58;;;;;;;7.28;3.72;;;;;;;10.99;65.57;102157.88;1738185;81;21050;-57
2022/12/21 19:50:25;;;;;;;6.67;3.70;;;;;;;10.99;65.19;102151.80;1733461;81;21127;-57
2022/12/21 19:52:51;;;;;;;4.58;2.80;;;;;;;10.98;65.08;102154.86;1728285;81;21097;-57
2022/12/21 19:55:21;;;;;;;8.10;3.50;;;;;;;10.96;65.03;102155.73;1724239;81;21574;-57
2022/12/21 19:57:54;;;;;;;8.40;3.58;;;;;;;10.95;65.15;102143.56;1742133;81;21671;-57
2022/12/21 20:00:24;;;;;;;8.35;4.30;;;;;;;10.92;65.37;102139.21;1727421;81;21130;-57
2022/12/21 20:02:51;;;;;;;11.10;4.47;;;;;;;10.92;65.65;102136.61;1733697;81;21056;-58
2022/12/21 20:05:22;;;;;;;9.88;4.25;;;;;;;10.93;65.67;102127.06;1740806;80;21833;-57
2022/12/21 20:07:49;;;;;;;8.05;2.98;;;;;;;10.94;65.85;102128.36;1706111;83;21030;-57
2022/12/21 20:10:16;;;;;;;6.85;2.15;;;;;;;10.93;66.01;102126.64;1709046;83;21030;-57
2022/12/21 20:12:44;;;;;;;5.00;1.90;;;;;;;10.91;66.19;102127.08;1704229;83;21161;-57
2022/12/21 20:15:29;;;;;;;6.20;2.12;;;;;;;10.90;66.35;102127.93;1701404;83;21590;-57
2022/12/21 20:17:56;;;;;;;7.78;2.25;;;;;;;10.88;66.43;102125.77;1696508;83;21097;-57
2022/12/21 20:20:24;;;;;;;9.45;2.30;;;;;;;10.91;66.53;102127.08;1702057;83;21199;-57
2022/12/21 20:22:53;;;;;;;3.72;1.60;;;;;;;10.92;66.58;102118.37;1644770;85;21647;-57
2022/12/21 20:25:21;;;;;;;3.37;2.20;;;;;;;10.93;66.58;102114.92;1655743;85;21127;-57
2022/12/21 20:27:54;;;;;;;6.28;1.92;;;;;;;10.94;66.58;102120.55;1661216;85;21051;-57
2022/12/21 20:30:26;;;;;;;4.25;1.50;;;;;;;10.96;66.67;102124.05;1691910;83;21576;-57
2022/12/21 20:33:04;;;;;;;2.90;1.50;;;;;;;10.98;66.59;102126.64;1700143;83;21048;-58
2022/12/21 20:35:32;;;;;;;6.67;2.27;;;;;;;11.01;66.41;102122.71;1670295;84;21139;-57
2022/12/21 20:38:24;;;;;;;3.17;1.50;;;;;;;11.03;66.29;102130.96;1653879;86;21624;-57
2022/12/21 20:40:56;;;;;;;5.62;1.90;;;;;;;11.07;66.08;102131.39;1694353;83;21036;-57
2022/12/21 20:46:28;;;;;;;7.75;2.45;;;;;;;11.08;65.98;102130.53;1696368;83;21066;-57
2022/12/21 20:48:55;;;;;;;7.12;2.75;;;;;;;11.11;65.95;102125.30;1698938;83;21112;-58
2022/12/21 20:51:22;;;;;;;5.50;1.72;;;;;;;11.14;65.94;102125.31;1707323;83;21080;-57
2022/12/21 20:53:49;;;;;;;3.67;1.77;;;;;;;11.13;65.92;102128.77;1653322;85;21061;-57
2022/12/21 20:56:26;;;;;;;3.05;1.10;;;;;;;11.14;65.89;102133.12;1650844;85;21065;-57
2022/12/21 20:58:55;;;;;;;4.72;1.60;;;;;;;11.14;65.85;102138.33;1661151;85;21756;-57
2022/12/21 21:01:26;;;;;;;3.70;1.80;;;;;;;11.16;65.88;102135.28;1657557;85;21015;-57
2022/12/21 21:03:52;;;;;;;3.65;1.70;;;;;;;11.18;65.82;102129.64;1712742;81;21099;-57
2022/12/21 21:06:19;;;;;;;4.15;1.60;;;;;;;11.21;65.72;102133.98;1736980;81;21046;-57
2022/12/21 21:08:47;;;;;;;5.83;1.60;;;;;;;11.21;65.68;102133.52;1727037;81;21078;-57
2022/12/21 21:13:59;;;;;;;5.65;1.60;;;;;;;11.22;65.81;102131.79;1742467;81;21029;-57
2022/12/21 21:16:35;;;;;;;5.33;1.60;;;;;;;11.21;65.83;102128.30;1732256;81;21572;-57
2022/12/21 21:19:02;;;;;;;5.60;2.20;;;;;;;11.19;65.88;102127.45;1678959;84;21006;-57
2022/12/21 21:24:19;;;;;;;4.95;1.85;;;;;;;11.19;65.96;102125.30;1684303;84;21522;-57
2022/12/21 21:26:46;;;;;;;8.03;2.05;;;;;;;11.18;65.99;102121.82;1689283;84;21089;-57
2022/12/21 21:29:19;;;;;;;5.15;2.08;;;;;;;11.21;65.97;102123.09;1685052;84;21066;-57
2022/12/21 21:31:46;;;;;;;9.40;1.87;;;;;;;11.23;65.89;102118.75;1686040;84;21021;-57
2022/12/21 21:34:12;;;;;;;4.90;1.85;;;;;;;11.23;65.80;102116.14;1687551;84;21022;-57
2022/12/21 21:36:43;;;;;;;6.00;1.90;;;;;;;11.25;65.83;102117.47;1688595;84;21082;-57
2022/12/21 21:42:01;;;;;;;8.25;2.17;;;;;;;11.27;65.93;102108.75;1662818;85;21098;-57
2022/12/21 21:44:32;;;;;;;4.83;1.92;;;;;;;11.29;65.78;102109.61;1653895;85;21595;-57
2022/12/21 21:47:30;;;;;;;6.37;2.33;;;;;;;11.30;65.62;102111.36;1660277;84;21117;-57
2022/12/21 21:49:30;;;;;;;5.33;1.98;;;;;;;11.29;65.73;102114.82;1655193;85;21083;-58
2022/12/21 21:51:57;;;;;;;4.85;2.27;;;;;;;11.30;65.80;102115.27;1657742;85;21600;-57
2022/12/21 21:54:24;;;;;;;9.20;2.42;;;;;;;11.31;65.64;102113.08;1659372;84;21134;-57
2022/12/21 21:56:59;;;;;;;5.72;2.37;;;;;;;11.32;65.56;102109.61;1659401;84;21141;-57
2022/12/21 21:59:35;;;;;;;4.92;2.27;;;;;;;11.32;65.38;102107.44;1628420;87;21087;-57
2022/12/21 22:02:22;;;;;;;5.58;2.00;;;;;;;11.29;65.18;102109.61;1621511;87;21158;-57
2022/12/21 22:04:50;;;;;;;4.00;1.45;;;;;;;11.27;64.97;102108.75;1617607;87;21075;-57
2022/12/21 22:07:18;;;;;;;5.25;1.60;;;;;;;11.24;64.52;102110.08;1629193;87;21142;-57
2022/12/21 22:09:45;;;;;;;4.72;1.95;;;;;;;11.22;64.24;102105.31;1579711;88;21173;-57
2022/12/21 22:12:21;;;;;;;4.45;2.25;;;;;;;11.18;63.97;102100.98;1590495;88;21112;-58
2022/12/21 22:17:32;;;;;;;6.00;2.05;;;;;;;11.07;63.69;102102.73;1590307;89;21617;-57
2022/12/21 22:43:07;;;;;;;2.72;1.72;;;;;;;10.81;64.20;102094.11;1620696;87;21168;-57
2022/12/21 22:45:34;;;;;;;3.87;1.67;;;;;;;10.79;64.21;102090.64;1615023;87;21589;-57
